createdAt,value
2022-08-09T00:00:11.229Z,102699.25
2022-08-09T00:02:42.876Z,102709.00
2022-08-09T00:06:17.448Z,102707.28
2022-08-09T00:08:10.017Z,102709.28
2022-08-09T00:10:38.622Z,102710.13
2022-08-09T00:13:17.488Z,102711.91
2022-08-09T00:15:58.130Z,102709.69
2022-08-09T00:18:27.582Z,102706.25
2022-08-09T00:20:59.758Z,102702.78
2022-08-09T00:23:54.875Z,102707.13
2022-08-09T00:26:15.584Z,102703.00
2022-08-09T00:28:52.733Z,102704.00
2022-08-09T00:31:56.745Z,102703.47
2022-08-09T00:34:11.303Z,102709.25
2022-08-09T00:36:41.506Z,102704.94
2022-08-09T00:39:10.898Z,102704.53
2022-08-09T00:44:10.467Z,102703.47
2022-08-09T00:44:47.624Z,102714.34
2022-08-09T00:47:16.948Z,102723.38
2022-08-09T00:49:55.097Z,102720.13
2022-08-09T00:52:28.181Z,102727.28
2022-08-09T00:54:58.958Z,102728.34
2022-08-09T00:57:34.901Z,102733.75
2022-08-09T01:00:20.696Z,102728.44
2022-08-09T01:02:55.086Z,102729.44
2022-08-09T01:05:51.883Z,102736.81
2022-08-09T01:08:27.063Z,102737.91
2022-08-09T01:11:08.567Z,102746.06
2022-08-09T01:13:59.041Z,102743.50
2022-08-09T01:16:33.007Z,102746.06
2022-08-09T01:19:17.199Z,102750.50
2022-08-09T01:22:16.467Z,102748.97
2022-08-09T01:24:56.712Z,102746.28
2022-08-09T01:27:29.251Z,102747.13
2022-08-09T01:30:01.178Z,102751.38
2022-08-09T01:32:35.157Z,102758.47
2022-08-09T01:35:28.864Z,102751.66
2022-08-09T01:38:10.049Z,102750.66
2022-08-09T01:40:43.732Z,102752.38
2022-08-09T01:43:13.632Z,102755.00
2022-08-09T01:45:46.116Z,102754.44
2022-08-09T01:48:17.643Z,102754.50
2022-08-09T01:50:55.104Z,102750.25
2022-08-09T01:53:24.012Z,102755.56
2022-08-09T01:55:59.486Z,102757.53
2022-08-09T01:58:31.075Z,102750.94
2022-08-09T02:01:01.193Z,102756.34
2022-08-09T02:03:32.446Z,102753.03
2022-08-09T02:06:06.859Z,102752.97
2022-08-09T02:08:57.197Z,102750.56
2022-08-09T02:11:42.101Z,102753.69
2022-08-09T02:14:15.733Z,102751.78
2022-08-09T02:17:00.043Z,102751.50
2022-08-09T02:19:44.079Z,102759.56
2022-08-09T02:22:31.745Z,102763.13
2022-08-09T02:25:06.695Z,102762.34
2022-08-09T02:27:57.354Z,102765.75
2022-08-09T02:30:31.196Z,102763.94
2022-08-09T02:33:01.265Z,102764.06
2022-08-09T02:36:02.710Z,102764.19
2022-08-09T02:38:28.898Z,102764.59
2022-08-09T02:41:03.482Z,102761.06
2022-08-09T02:43:54.167Z,102761.06
2022-08-09T02:46:25.533Z,102766.31
2022-08-09T02:48:57.872Z,102769.13
2022-08-09T02:51:37.215Z,102758.03
2022-08-09T02:54:10.999Z,102759.16
2022-08-09T02:56:51.219Z,102767.16
2022-08-09T02:59:36.317Z,102764.59
2022-08-09T03:02:11.873Z,102760.38
2022-08-09T03:04:50.706Z,102753.44
2022-08-09T03:07:20.582Z,102765.75
2022-08-09T03:09:56.347Z,102761.56
2022-08-09T03:12:28.852Z,102763.38
2022-08-09T03:14:59.827Z,102766.19
2022-08-09T03:17:30.655Z,102762.75
2022-08-09T03:20:04.961Z,102764.47
2022-08-09T03:22:42.300Z,102759.16
2022-08-09T03:25:26.067Z,102763.44
2022-08-09T03:28:03.935Z,102763.56
2022-08-09T03:30:34.207Z,102767.00
2022-08-09T03:33:16.806Z,102763.44
2022-08-09T03:36:13.447Z,102767.50
2022-08-09T03:38:41.602Z,102768.25
2022-08-09T03:41:15.306Z,102771.94
2022-08-09T03:44:02.807Z,102771.00
2022-08-09T03:46:33.004Z,102763.88
2022-08-09T03:49:08.214Z,102776.84
2022-08-09T03:51:56.727Z,102776.59
2022-08-09T03:54:31.226Z,102777.06
2022-08-09T03:57:18.746Z,102784.69
2022-08-09T03:59:54.404Z,102790.69
2022-08-09T04:02:26.673Z,102790.19
2022-08-09T04:04:58.587Z,102793.50
2022-08-09T04:07:33.722Z,102793.31
2022-08-09T04:10:15.388Z,102785.88
2022-08-09T04:12:50.064Z,102799.47
2022-08-09T04:15:38.969Z,102793.09
2022-08-09T04:18:09.010Z,102799.94
2022-08-09T04:20:38.326Z,102794.31
2022-08-09T04:23:09.762Z,102799.31
2022-08-09T04:25:38.398Z,102800.44
2022-08-09T04:28:06.982Z,102800.84
2022-08-09T04:30:35.015Z,102798.72
2022-08-09T04:33:02.960Z,102806.25
2022-08-09T04:35:32.969Z,102798.06
2022-08-09T04:38:03.514Z,102796.78
2022-08-09T04:40:45.783Z,102805.22
2022-08-09T04:43:14.168Z,102806.63
2022-08-09T04:45:53.486Z,102806.25
2022-08-09T04:48:23.917Z,102807.66
2022-08-09T04:51:01.846Z,102817.03
2022-08-09T04:53:31.577Z,102808.88
2022-08-09T04:56:00.587Z,102809.47
2022-08-09T04:58:29.846Z,102804.84
2022-08-09T05:01:00.046Z,102800.19
2022-08-09T05:03:43.559Z,102803.38
2022-08-09T05:06:26.925Z,102802.22
2022-08-09T05:09:00.338Z,102801.91
2022-08-09T05:11:32.258Z,102798.88
2022-08-09T05:14:05.879Z,102802.06
2022-08-09T05:16:34.474Z,102795.47
2022-08-09T05:19:25.709Z,102799.38
2022-08-09T05:21:55.478Z,102794.59
2022-08-09T05:24:25.563Z,102794.00
2022-08-09T05:26:53.602Z,102795.13
2022-08-09T05:29:24.203Z,102801.53
2022-08-09T05:32:01.163Z,102808.84
2022-08-09T05:34:31.843Z,102808.38
2022-08-09T05:37:05.194Z,102807.06
2022-08-09T05:39:42.489Z,102817.19
2022-08-09T05:42:17.345Z,102808.38
2022-08-09T05:44:53.622Z,102813.56
2022-08-09T05:47:23.222Z,102817.38
2022-08-09T05:50:26.746Z,102814.22
2022-08-09T05:52:41.907Z,102815.22
2022-08-09T05:55:18.220Z,102816.78
2022-08-09T05:57:55.360Z,102824.97
2022-08-09T06:00:25.694Z,102823.09
2022-08-09T06:02:57.041Z,102829.34
2022-08-09T06:05:50.241Z,102824.75
2022-08-09T06:08:13.751Z,102824.84
2022-08-09T06:10:49.744Z,102828.53
2022-08-09T06:13:20.187Z,102834.47
2022-08-09T06:15:51.803Z,102833.72
2022-08-09T06:18:24.787Z,102824.44
2022-08-09T06:20:54.803Z,102818.53
2022-08-09T06:23:57.223Z,102818.38
2022-08-09T06:26:22.222Z,102813.28
2022-08-09T06:28:59.462Z,102815.50
2022-08-09T06:31:31.600Z,102815.09
2022-08-09T06:34:09.420Z,102814.09
2022-08-09T06:36:37.563Z,102806.41
2022-08-09T06:39:12.806Z,102814.19
2022-08-09T06:42:08.543Z,102817.13
2022-08-09T06:44:30.078Z,102807.91
2022-08-09T06:46:58.212Z,102819.38
2022-08-09T06:49:44.651Z,102820.13
2022-08-09T06:52:15.807Z,102817.50
2022-08-09T06:54:44.095Z,102816.66
2022-08-09T06:57:14.116Z,102817.06
2022-08-09T07:00:50.387Z,102822.84
2022-08-09T07:02:31.916Z,102825.88
2022-08-09T07:05:00.557Z,102822.13
2022-08-09T07:08:00.651Z,102829.06
2022-08-09T07:10:22.517Z,102826.63
2022-08-09T07:12:57.557Z,102829.91
2022-08-09T07:16:38.399Z,102835.91
2022-08-09T07:18:14.945Z,102837.59
2022-08-09T07:20:47.690Z,102826.81
2022-08-09T07:23:18.584Z,102823.69
2022-08-09T07:25:47.559Z,102823.19
2022-08-09T07:28:28.038Z,102826.78
2022-08-09T07:30:56.234Z,102829.63
2022-08-09T07:33:24.465Z,102832.56
2022-08-09T07:35:53.983Z,102837.50
2022-08-09T07:38:23.565Z,102833.88
2022-08-09T07:41:09.939Z,102839.53
2022-08-09T07:43:50.074Z,102831.22
2022-08-09T07:46:27.754Z,102834.66
2022-08-09T07:48:59.303Z,102835.44
2022-08-09T07:52:04.564Z,102834.41
2022-08-09T07:54:19.182Z,102835.09
2022-08-09T07:56:56.260Z,102829.75
2022-08-09T07:59:45.771Z,102832.16
2022-08-09T08:02:19.447Z,102838.94
2022-08-09T08:04:48.808Z,102832.38
2022-08-09T08:08:43.798Z,102830.47
2022-08-09T08:10:08.548Z,102827.56
2022-08-09T08:12:43.815Z,102825.63
2022-08-09T08:15:17.396Z,102829.38
2022-08-09T08:17:53.868Z,102837.25
2022-08-09T08:20:29.137Z,102831.41
2022-08-09T08:23:03.832Z,102832.38
2022-08-09T08:25:46.612Z,102833.47
2022-08-09T08:28:25.592Z,102829.50
2022-08-09T08:30:55.593Z,102824.28
2022-08-09T08:33:24.707Z,102825.34
2022-08-09T08:35:59.376Z,102831.41
2022-08-09T08:38:29.230Z,102821.22
2022-08-09T08:40:58.241Z,102826.69
2022-08-09T08:43:27.704Z,102823.28
2022-08-09T08:46:24.895Z,102819.03
2022-08-09T08:48:53.584Z,102817.00
2022-08-09T08:51:23.194Z,102816.00
2022-08-09T08:54:02.561Z,102820.13
2022-08-09T08:56:35.512Z,102827.44
2022-08-09T08:59:18.721Z,102831.75
2022-08-09T09:01:53.247Z,102825.25
2022-08-09T09:04:29.804Z,102826.31
2022-08-09T09:07:04.212Z,102815.13
2022-08-09T09:09:58.456Z,102822.75
2022-08-09T09:12:33.966Z,102813.53
2022-08-09T09:15:05.497Z,102816.28
2022-08-09T09:17:48.669Z,102813.06
2022-08-09T09:20:21.363Z,102817.81
2022-08-09T09:23:01.637Z,102818.53
2022-08-09T09:26:04.850Z,102815.75
2022-08-09T09:29:02.013Z,102813.53
2022-08-09T09:31:17.182Z,102813.94
2022-08-09T09:34:15.302Z,102812.22
2022-08-09T09:36:53.236Z,102818.75
2022-08-09T09:39:55.111Z,102815.25
2022-08-09T09:42:24.515Z,102816.53
2022-08-09T09:44:58.177Z,102821.31
2022-08-09T09:47:29.583Z,102809.63
2022-08-09T09:50:14.354Z,102807.59
2022-08-09T09:52:53.550Z,102812.94
2022-08-09T09:55:28.442Z,102808.72
2022-08-09T09:58:17.217Z,102806.91
2022-08-09T10:00:52.591Z,102808.72
2022-08-09T10:03:44.074Z,102813.50
2022-08-09T10:06:14.530Z,102802.56
2022-08-09T10:08:55.069Z,102805.91
2022-08-09T10:12:01.413Z,102807.34
2022-08-09T10:14:33.148Z,102802.00
2022-08-09T10:17:38.785Z,102803.69
2022-08-09T10:19:59.812Z,102797.50
2022-08-09T10:22:34.802Z,102801.03
2022-08-09T10:25:11.158Z,102791.84
2022-08-09T10:27:56.075Z,102795.94
2022-08-09T10:34:04.377Z,102799.75
2022-08-09T10:36:02.595Z,102788.88
2022-08-09T10:38:54.895Z,102789.41
2022-08-09T10:41:20.696Z,102785.50
2022-08-09T10:43:59.529Z,102784.81
2022-08-09T10:48:12.343Z,102778.22
2022-08-09T10:50:20.982Z,102777.09
2022-08-09T10:53:10.142Z,102773.44
2022-08-09T10:55:58.252Z,102776.97
2022-08-09T10:58:33.466Z,102770.47
2022-08-09T11:03:01.742Z,102775.69
2022-08-09T11:04:19.902Z,102777.41
2022-08-09T11:07:57.038Z,102773.59
2022-08-09T11:11:00.739Z,102780.91
2022-08-09T11:13:51.219Z,102773.88
2022-08-09T11:16:37.619Z,102775.84
2022-08-09T11:19:10.601Z,102768.25
2022-08-09T11:21:57.055Z,102763.88
2022-08-09T11:25:04.696Z,102763.19
2022-08-09T11:28:02.985Z,102756.00
2022-08-09T11:30:36.032Z,102759.53
2022-08-09T11:33:06.807Z,102750.22
2022-08-09T11:35:49.802Z,102743.75
2022-08-09T11:38:22.061Z,102749.94
2022-08-09T11:40:53.074Z,102747.72
2022-08-09T11:43:42.480Z,102747.72
2022-08-09T11:46:11.228Z,102749.53
2022-08-09T11:48:49.414Z,102748.00
2022-08-09T11:53:02.417Z,102744.91
2022-08-09T11:54:27.500Z,102749.69
2022-08-09T11:57:47.821Z,102751.91
2022-08-09T12:00:24.745Z,102758.81
2022-08-09T12:02:56.516Z,102768.50
2022-08-09T12:05:37.649Z,102756.13
2022-08-09T12:08:12.128Z,102752.31
2022-08-09T12:10:48.476Z,102752.75
2022-08-09T12:14:07.017Z,102755.00
2022-08-09T12:16:30.450Z,102751.75
2022-08-09T12:19:06.838Z,102752.75
2022-08-09T12:21:38.852Z,102746.97
2022-08-09T12:24:10.152Z,102742.06
2022-08-09T12:26:44.825Z,102746.56
2022-08-09T12:29:52.341Z,102738.28
2022-08-09T12:32:27.608Z,102746.81
2022-08-09T12:35:03.091Z,102739.94
2022-08-09T12:37:33.451Z,102734.72
2022-08-09T12:40:13.507Z,102737.25
2022-08-09T12:42:45.002Z,102730.25
2022-08-09T12:45:34.356Z,102733.00
2022-08-09T12:48:04.057Z,102725.69
2022-08-09T12:50:32.440Z,102722.31
2022-08-09T12:53:17.583Z,102726.97
2022-08-09T12:56:14.816Z,102727.13
2022-08-09T12:58:42.867Z,102724.31
2022-08-09T13:01:22.959Z,102718.09
2022-08-09T13:04:06.444Z,102713.03
2022-08-09T13:06:42.194Z,102717.06
2022-08-09T13:09:13.523Z,102725.34
2022-08-09T13:11:43.252Z,102722.81
2022-08-09T13:14:42.182Z,102719.19
2022-08-09T13:17:02.295Z,102713.41
2022-08-09T13:20:09.095Z,102707.78
2022-08-09T13:23:00.552Z,102704.13
2022-08-09T13:25:14.226Z,102705.66
2022-08-09T13:27:48.781Z,102701.69
2022-08-09T13:30:50.372Z,102700.88
2022-08-09T13:33:23.333Z,102698.72
2022-08-09T13:36:37.955Z,102710.72
2022-08-09T13:38:55.595Z,102698.66
2022-08-09T13:41:58.669Z,102706.25
2022-08-09T13:44:16.813Z,102705.94
2022-08-09T13:47:26.991Z,102706.06
2022-08-09T13:49:39.899Z,102696.75
2022-08-09T13:52:26.312Z,102706.75
2022-08-09T13:54:58.965Z,102702.66
2022-08-09T13:57:36.353Z,102702.97
2022-08-09T14:00:12.227Z,102698.78
2022-08-09T14:03:04.237Z,102700.91
2022-08-09T14:05:57.065Z,102697.03
2022-08-09T14:08:22.996Z,102696.09
2022-08-09T14:10:52.284Z,102693.06
2022-08-09T14:14:14.769Z,102694.19
2022-08-09T14:16:14.245Z,102695.50
2022-08-09T14:18:45.338Z,102692.53
2022-08-09T14:21:17.783Z,102687.91
2022-08-09T14:23:54.708Z,102691.44
2022-08-09T14:26:30.597Z,102682.56
2022-08-09T14:29:02.933Z,102688.63
2022-08-09T14:31:36.341Z,102676.50
2022-08-09T14:34:30.757Z,102675.53
2022-08-09T14:37:01.556Z,102669.75
2022-08-09T14:39:46.467Z,102668.75
2022-08-09T14:42:31.362Z,102665.09
2022-08-09T14:45:01.619Z,102667.34
2022-08-09T14:47:58.041Z,102655.91
2022-08-09T14:50:28.565Z,102664.91
2022-08-09T14:52:56.739Z,102671.09
2022-08-09T14:55:29.123Z,102671.50
2022-08-09T14:58:00.527Z,102664.59
2022-08-09T15:00:31.317Z,102668.06
2022-08-09T15:03:00.263Z,102673.53
2022-08-09T15:05:28.283Z,102660.22
2022-08-09T15:07:58.261Z,102671.63
2022-08-09T15:10:31.653Z,102666.16
2022-08-09T15:13:01.284Z,102669.59
2022-08-09T15:15:30.650Z,102674.13
2022-08-09T15:18:07.685Z,102668.81
2022-08-09T15:21:57.533Z,102666.19
2022-08-09T15:24:00.798Z,102665.88
2022-08-09T15:26:31.550Z,102651.41
2022-08-09T15:29:04.991Z,102655.81
2022-08-09T15:31:40.795Z,102658.91
2022-08-09T15:34:33.152Z,102649.75
2022-08-09T15:36:58.650Z,102657.69
2022-08-09T15:39:49.927Z,102653.75
2022-08-09T15:42:16.043Z,102656.00
2022-08-09T15:44:47.086Z,102649.00
2022-08-09T15:47:21.786Z,102648.13
2022-08-09T15:50:04.079Z,102655.16
2022-08-09T15:52:33.687Z,102653.34
2022-08-09T15:55:02.042Z,102648.00
2022-08-09T15:57:35.350Z,102650.75
2022-08-09T16:00:17.061Z,102652.16
2022-08-09T16:02:54.462Z,102655.25
2022-08-09T16:05:26.511Z,102645.13
2022-08-09T16:08:15.175Z,102645.38
2022-08-09T16:10:58.276Z,102645.78
2022-08-09T16:14:03.663Z,102637.63
2022-08-09T16:16:18.600Z,102631.41
2022-08-09T16:18:47.043Z,102637.63
2022-08-09T16:21:17.208Z,102629.31
2022-08-09T16:23:55.985Z,102638.72
2022-08-09T16:26:33.694Z,102638.13
2022-08-09T16:29:11.650Z,102631.63
2022-08-09T16:32:17.934Z,102638.94
2022-08-09T16:34:29.639Z,102634.75
2022-08-09T16:37:17.561Z,102637.13
2022-08-09T16:39:54.698Z,102637.53
2022-08-09T16:42:36.901Z,102639.34
2022-08-09T16:45:09.392Z,102634.16
2022-08-09T16:48:39.304Z,102637.34
2022-08-09T16:50:33.785Z,102627.91
2022-08-09T16:53:05.687Z,102634.53
2022-08-09T16:55:58.760Z,102629.16
2022-08-09T16:58:21.776Z,102625.97
2022-08-09T17:00:51.758Z,102636.94
2022-08-09T17:03:21.998Z,102628.09
2022-08-09T17:06:08.308Z,102625.03
2022-08-09T17:08:59.909Z,102625.03
2022-08-09T17:14:16.252Z,102612.25
2022-08-09T17:16:57.024Z,102616.22
2022-08-09T17:19:47.592Z,102620.03
2022-08-09T17:22:16.547Z,102617.22
2022-08-09T17:24:55.214Z,102616.63
2022-08-09T17:27:23.750Z,102621.16
2022-08-09T17:29:51.800Z,102612.56
2022-08-09T17:32:36.844Z,102613.69
2022-08-09T17:35:11.185Z,102607.09
2022-08-09T17:38:14.192Z,102609.06
2022-08-09T17:40:30.478Z,102607.63
2022-08-09T17:43:32.173Z,102606.22
2022-08-09T17:46:03.828Z,102601.47
2022-08-09T17:48:38.868Z,102607.94
2022-08-09T17:51:17.313Z,102604.97
2022-08-09T17:53:51.559Z,102602.59
2022-08-09T17:56:21.404Z,102607.50
2022-08-09T17:58:49.487Z,102606.22
2022-08-09T18:01:23.208Z,102614.81
2022-08-09T18:03:54.634Z,102610.16
2022-08-09T18:06:32.137Z,102611.84
2022-08-09T18:09:03.663Z,102617.88
2022-08-09T18:12:04.812Z,102621.22
2022-08-09T18:14:22.705Z,102622.88
2022-08-09T18:16:53.153Z,102619.31
2022-08-09T18:20:53.885Z,102622.38
2022-08-09T18:22:13.301Z,102621.50
2022-08-09T18:24:45.541Z,102624.84
2022-08-09T18:27:49.223Z,102628.03
2022-08-09T18:30:41.260Z,102626.91
2022-08-09T18:32:54.627Z,102634.28
2022-08-09T18:35:47.930Z,102636.34
2022-08-09T18:38:12.472Z,102631.41
2022-08-09T18:40:40.608Z,102644.44
2022-08-09T18:43:08.962Z,102641.28
2022-08-09T18:46:51.209Z,102639.16
2022-08-09T18:48:30.340Z,102640.66
2022-08-09T18:51:02.420Z,102642.13
2022-08-09T18:53:41.451Z,102644.72
2022-08-09T18:56:20.124Z,102647.06
2022-08-09T18:58:56.023Z,102646.75
2022-08-09T19:01:26.910Z,102647.13
2022-08-09T19:04:06.290Z,102647.25
2022-08-09T19:06:38.581Z,102659.22
2022-08-09T19:09:06.986Z,102652.50
2022-08-09T19:11:37.716Z,102659.41
2022-08-09T19:14:06.409Z,102670.69
2022-08-09T19:16:36.554Z,102670.81
2022-08-09T19:19:25.705Z,102666.09
2022-08-09T19:22:04.529Z,102674.69
2022-08-09T19:25:07.658Z,102668.75
2022-08-09T19:27:22.938Z,102675.69
2022-08-09T19:30:23.280Z,102673.50
2022-08-09T19:32:38.761Z,102670.59
2022-08-09T19:35:07.787Z,102678.94
2022-08-09T19:37:54.054Z,102668.69
2022-08-09T19:40:22.893Z,102678.84
2022-08-09T19:42:51.054Z,102677.66
2022-08-09T19:45:20.545Z,102671.00
2022-08-09T19:47:48.502Z,102668.81
2022-08-09T19:50:50.368Z,102669.28
2022-08-09T19:53:06.686Z,102667.00
2022-08-09T19:56:02.449Z,102659.38
2022-08-09T19:58:29.842Z,102660.91
2022-08-09T20:00:58.624Z,102655.97
2022-08-09T20:04:17.373Z,102653.53
2022-08-09T20:06:23.372Z,102655.72
2022-08-09T20:08:59.337Z,102655.22
2022-08-09T20:11:43.275Z,102664.28
2022-08-09T20:14:16.611Z,102663.66
2022-08-09T20:16:49.900Z,102656.78
2022-08-09T20:19:49.277Z,102660.72
2022-08-09T20:22:10.185Z,102659.28
2022-08-09T20:24:54.100Z,102655.91
2022-08-09T20:27:22.904Z,102655.19
2022-08-09T20:29:50.873Z,102656.34
2022-08-09T20:32:30.773Z,102657.44
2022-08-09T20:35:02.030Z,102666.63
2022-08-09T20:37:37.735Z,102664.91
2022-08-09T20:40:27.096Z,102656.56
2022-08-09T20:43:11.859Z,102669.22
2022-08-09T20:46:00.650Z,102662.34
2022-08-09T20:48:32.944Z,102661.00
2022-08-09T20:51:02.986Z,102664.72
2022-08-09T20:53:36.798Z,102664.34
2022-08-09T20:56:20.135Z,102665.28
2022-08-09T20:58:49.884Z,102667.94
2022-08-09T21:01:34.767Z,102657.63
2022-08-09T21:05:49.910Z,102660.50
2022-08-09T21:06:55.115Z,102658.81
2022-08-09T21:09:32.630Z,102653.41
2022-08-09T21:14:42.984Z,102663.16
2022-08-09T21:18:21.161Z,102666.16
2022-08-09T21:20:22.406Z,102661.28
2022-08-09T21:22:54.847Z,102666.84
2022-08-09T21:25:44.168Z,102664.31
2022-08-09T21:28:33.611Z,102674.41
2022-08-09T21:31:17.532Z,102673.66
2022-08-09T21:33:50.854Z,102668.34
2022-08-09T21:36:21.128Z,102672.09
2022-08-09T21:38:58.050Z,102670.28
2022-08-09T21:42:04.188Z,102681.22
2022-08-09T21:44:32.794Z,102670.00
2022-08-09T21:47:03.711Z,102662.91
2022-08-09T21:49:40.430Z,102661.94
2022-08-09T21:52:16.744Z,102659.06
2022-08-09T21:55:03.680Z,102655.66
2022-08-09T21:57:39.048Z,102660.13
2022-08-09T22:00:26.735Z,102658.41
2022-08-09T22:03:01.527Z,102653.44
2022-08-09T22:05:35.375Z,102662.25
2022-08-09T22:08:06.347Z,102661.50
2022-08-09T22:10:34.588Z,102663.34
2022-08-09T22:13:22.778Z,102657.28
2022-08-09T22:16:04.317Z,102661.63
2022-08-09T22:18:35.521Z,102656.22
2022-08-09T22:21:09.740Z,102655.03
2022-08-09T22:23:59.171Z,102650.56
2022-08-09T22:26:34.815Z,102649.75
2022-08-09T22:29:09.136Z,102654.06
2022-08-09T22:31:50.458Z,102648.78
2022-08-09T22:34:25.862Z,102648.13
2022-08-09T22:36:54.289Z,102654.53
2022-08-09T22:39:55.706Z,102643.41
2022-08-09T22:42:21.562Z,102647.22
2022-08-09T22:45:00.537Z,102650.97
2022-08-09T22:48:10.964Z,102642.38
2022-08-09T22:50:28.345Z,102643.66
2022-08-09T22:52:58.211Z,102644.75
2022-08-09T22:55:39.283Z,102644.75
2022-08-09T22:58:20.160Z,102646.66
2022-08-09T23:00:58.746Z,102642.44
2022-08-09T23:04:02.371Z,102644.22
2022-08-09T23:06:16.012Z,102639.47
2022-08-09T23:09:03.967Z,102644.75
2022-08-09T23:11:31.856Z,102640.44
2022-08-09T23:13:59.840Z,102639.69
2022-08-09T23:16:27.838Z,102641.59
2022-08-09T23:18:57.186Z,102640.13
2022-08-09T23:21:28.729Z,102640.13
2022-08-09T23:24:06.467Z,102656.00
2022-08-09T23:26:39.699Z,102655.38
2022-08-09T23:29:08.494Z,102656.53
2022-08-09T23:31:36.498Z,102653.00
2022-08-09T23:34:05.826Z,102643.59
2022-08-09T23:36:34.120Z,102656.19
2022-08-09T23:39:02.670Z,102659.69
2022-08-09T23:41:30.810Z,102655.47
2022-08-09T23:44:00.374Z,102653.03
2022-08-09T23:46:28.927Z,102658.66
2022-08-09T23:48:56.971Z,102654.22
2022-08-09T23:51:27.231Z,102656.00
2022-08-09T23:54:02.541Z,102652.50
2022-08-09T23:56:52.422Z,102643.84
2022-08-09T23:59:20.870Z,102644.06
